Time;durP1;ratioP1;P1;durP2;ratioP2;P2;SDS_P1;SDS_P2;PMS_P1;PMS_P2;Temp;Humidity;BMP_temperature;BMP_pressure;BME280_temperature;BME280_humidity;BME280_pressure;Samples;Min_cycle;Max_cycle;Signal;HPM_P1;HPM_P2
2021/06/18 00:01:21;;;;;;;45.72;41.13;;;21.00;84.80;;;;;;5041463;28;20048;-72
2021/06/18 00:03:48;;;;;;;48.88;43.67;;;21.10;84.70;;;;;;5055213;28;20468;-71
2021/06/18 00:06:13;;;;;;;46.55;41.95;;;21.10;84.40;;;;;;5061037;28;20124;-72
2021/06/18 00:08:39;;;;;;;46.20;41.50;;;21.10;84.20;;;;;;5056270;28;20159;-72
2021/06/18 00:11:05;;;;;;;50.28;45.20;;;21.20;83.90;;;;;;5058228;28;20044;-77
2021/06/18 00:13:31;;;;;;;50.75;45.58;;;21.20;83.50;;;;;;5062100;28;20036;-72
2021/06/18 00:15:56;;;;;;;48.88;43.88;;;21.10;83.80;;;;;;5057676;28;20877;-71
2021/06/18 00:18:22;;;;;;;46.53;41.95;;;21.10;84.00;;;;;;5062068;28;20032;-72
2021/06/18 00:20:48;;;;;;;47.33;42.50;;;21.10;84.00;;;;;;5064724;28;20047;-72
2021/06/18 00:23:13;;;;;;;49.25;44.25;;;21.20;84.20;;;;;;5065308;28;20041;-74
2021/06/18 00:25:41;;;;;;;49.83;44.65;;;21.30;84.10;;;;;;5063999;28;20647;-72
2021/06/18 00:28:07;;;;;;;47.38;42.47;;;21.30;84.00;;;;;;5066112;28;20056;-71
2021/06/18 00:30:33;;;;;;;45.75;41.35;;;21.40;84.00;;;;;;5051184;28;20051;-72
2021/06/18 00:32:59;;;;;;;44.35;39.92;;;21.40;83.70;;;;;;5047704;28;20075;-71
2021/06/18 00:35:25;;;;;;;49.13;44.03;;;21.40;84.00;;;;;;5047927;28;20021;-73
2021/06/18 00:37:50;;;;;;;47.90;43.10;;;21.50;84.10;;;;;;5063351;28;20043;-73
2021/06/18 00:40:17;;;;;;;54.72;49.17;;;21.50;83.90;;;;;;5067396;28;20482;-72
2021/06/18 00:42:43;;;;;;;51.65;46.22;;;21.40;83.70;;;;;;5048871;28;20033;-77
2021/06/18 00:45:09;;;;;;;52.78;47.38;;;21.20;84.20;;;;;;5059196;28;20619;-71
2021/06/18 00:47:40;;;;;;;51.17;45.72;;;21.20;84.70;;;;;;5066512;28;20099;-71
2021/06/18 00:50:06;;;;;;;52.85;47.65;;;21.20;84.70;;;;;;5063484;28;20524;-72
2021/06/18 00:52:32;;;;;;;56.13;50.42;;;21.20;84.70;;;;;;5054088;28;20032;-74
2021/06/18 00:54:58;;;;;;;55.90;50.28;;;21.20;84.70;;;;;;5043924;28;20033;-76
2021/06/18 00:57:24;;;;;;;53.83;48.53;;;21.20;84.70;;;;;;5064630;28;20067;-71
2021/06/18 00:59:50;;;;;;;53.80;48.38;;;21.20;84.70;;;;;;5064766;28;20391;-72
2021/06/18 01:02:15;;;;;;;54.47;48.95;;;21.30;85.20;;;;;;5067158;28;20029;-73
2021/06/18 01:04:42;;;;;;;57.17;51.25;;;21.30;85.40;;;;;;5059951;28;20025;-76
2021/06/18 01:07:21;;;;;;;56.45;50.90;;;21.40;85.10;;;;;;5039194;28;20700;-72
2021/06/18 01:09:50;;;;;;;57.60;51.92;;;21.20;85.20;;;;;;5063615;28;20028;-77
2021/06/18 01:12:19;;;;;;;58.13;52.17;;;21.20;85.30;;;;;;5061053;28;20111;-78
2021/06/18 01:15:13;;;;;;;54.33;48.88;;;21.20;85.70;;;;;;5065333;28;20544;-72
2021/06/18 01:17:50;;;;;;;55.17;49.58;;;21.20;86.00;;;;;;5058092;28;20052;-77
2021/06/18 01:20:48;;;;;;;54.83;49.35;;;21.30;86.30;;;;;;5064238;28;20364;-71
2021/06/18 01:23:24;;;;;;;56.33;50.47;;;21.30;86.30;;;;;;5025564;28;20037;-72
2021/06/18 01:25:58;;;;;;;55.90;50.25;;;21.30;86.10;;;;;;5064085;28;20041;-71
2021/06/18 01:28:42;;;;;;;59.08;53.08;;;21.30;86.00;;;;;;5068168;28;20040;-71
2021/06/18 01:31:10;;;;;;;62.53;56.28;;;21.30;86.20;;;;;;5065040;28;20127;-72
2021/06/18 01:33:39;;;;;;;61.47;54.97;;;21.30;86.00;;;;;;5060817;28;20044;-73
2021/06/18 01:36:08;;;;;;;59.88;53.38;;;21.30;86.00;;;;;;5063250;28;20039;-71
2021/06/18 01:38:38;;;;;;;59.65;53.55;;;21.30;86.10;;;;;;5061842;28;20047;-78
2021/06/18 01:41:07;;;;;;;62.60;56.20;;;20.90;86.30;;;;;;5065767;28;20055;-73
2021/06/18 01:43:35;;;;;;;60.47;54.10;;;20.80;87.20;;;;;;5063588;28;20045;-71
2021/06/18 01:46:02;;;;;;;65.28;53.67;;;20.60;87.60;;;;;;5063614;28;20036;-71
2021/06/18 01:48:30;;;;;;;64.20;53.47;;;20.60;88.10;;;;;;5063431;28;20075;-71
2021/06/18 01:50:56;;;;;;;70.40;55.40;;;20.60;88.30;;;;;;5066031;28;20128;-73
2021/06/18 01:53:24;;;;;;;69.82;54.13;;;20.70;88.00;;;;;;5066498;28;20051;-75
2021/06/18 01:55:50;;;;;;;78.85;56.55;;;20.60;88.00;;;;;;5058760;28;20024;-71
2021/06/18 01:58:18;;;;;;;84.93;58.78;;;20.60;88.00;;;;;;5064811;28;20415;-71
2021/06/18 02:00:46;;;;;;;97.68;61.70;;;20.50;88.20;;;;;;5064163;28;20747;-73
2021/06/18 02:03:22;;;;;;;104.78;66.30;;;20.60;88.60;;;;;;5063971;28;20067;-71
2021/06/18 02:05:50;;;;;;;104.60;65.38;;;20.60;88.60;;;;;;5065277;28;20039;-71
2021/06/18 02:08:15;;;;;;;83.80;55.05;;;20.60;88.70;;;;;;5060875;28;20084;-78
2021/06/18 02:10:46;;;;;;;67.90;49.00;;;20.60;88.40;;;;;;5066081;28;20066;-73
2021/06/18 02:13:15;;;;;;;63.05;46.60;;;20.60;88.20;;;;;;5059638;28;20036;-73
2021/06/18 02:15:43;;;;;;;51.10;41.05;;;20.50;88.30;;;;;;5052191;28;20056;-73
2021/06/18 02:18:15;;;;;;;46.83;41.55;;;20.50;88.20;;;;;;5034121;28;20068;-71
2021/06/18 02:20:43;;;;;;;47.70;41.67;;;20.40;88.20;;;;;;5062536;28;20565;-72
2021/06/18 02:23:10;;;;;;;47.45;41.75;;;20.40;88.20;;;;;;5045073;28;20082;-71
2021/06/18 02:25:38;;;;;;;51.65;45.53;;;20.40;88.30;;;;;;5065404;28;20032;-77
2021/06/18 02:28:05;;;;;;;55.13;47.65;;;20.40;88.50;;;;;;5060258;28;20039;-71
2021/06/18 02:30:32;;;;;;;58.97;52.53;;;20.50;88.40;;;;;;5064917;28;20036;-70
2021/06/18 02:33:00;;;;;;;63.83;52.83;;;20.40;88.70;;;;;;5064909;28;20108;-72
2021/06/18 02:35:26;;;;;;;62.90;51.72;;;20.40;88.60;;;;;;5061665;28;20035;-71
2021/06/18 02:37:52;;;;;;;67.97;54.60;;;20.40;88.40;;;;;;5047935;28;20391;-71
2021/06/18 02:40:19;;;;;;;63.20;52.08;;;20.50;88.60;;;;;;5060235;28;20071;-71
2021/06/18 02:42:45;;;;;;;55.72;49.35;;;20.40;88.60;;;;;;5049849;28;20041;-71
2021/06/18 02:45:11;;;;;;;54.88;47.42;;;20.40;88.50;;;;;;5063510;28;20480;-73
2021/06/18 02:48:13;;;;;;;54.55;48.58;;;20.40;88.80;;;;;;5062547;28;20075;-79
2021/06/18 02:50:45;;;;;;;52.50;46.80;;;20.30;88.90;;;;;;5034278;28;20052;-72
2021/06/18 02:53:20;;;;;;;51.33;46.13;;;20.30;89.10;;;;;;5063923;28;20047;-71
2021/06/18 02:56:02;;;;;;;49.92;44.58;;;20.30;89.10;;;;;;5061698;28;20494;-73
2021/06/18 02:58:35;;;;;;;46.38;41.65;;;20.30;89.20;;;;;;5063114;28;20333;-74
2021/06/18 03:01:03;;;;;;;44.97;40.13;;;20.30;89.30;;;;;;5063056;28;20098;-70
2021/06/18 03:03:33;;;;;;;41.50;37.20;;;20.30;89.30;;;;;;5065760;28;20071;-71
2021/06/18 03:06:02;;;;;;;42.00;37.83;;;20.30;89.20;;;;;;5063507;28;20464;-72
2021/06/18 03:09:02;;;;;;;41.40;37.17;;;20.30;89.30;;;;;;5061690;28;20070;-72
2021/06/18 03:11:29;;;;;;;37.78;33.95;;;20.20;89.30;;;;;;5057230;28;20028;-72
2021/06/18 03:13:58;;;;;;;38.40;34.40;;;20.20;89.10;;;;;;5064436;28;20071;-71
2021/06/18 03:16:28;;;;;;;38.25;34.35;;;20.20;89.10;;;;;;5064737;28;20029;-71
2021/06/18 03:18:57;;;;;;;38.00;34.05;;;20.10;88.90;;;;;;5043688;28;20533;-70
2021/06/18 03:21:24;;;;;;;39.50;35.47;;;20.10;89.10;;;;;;5063782;28;20032;-71
2021/06/18 03:23:52;;;;;;;40.00;35.78;;;20.10;89.20;;;;;;5061594;28;20040;-71
2021/06/18 03:26:18;;;;;;;38.30;34.35;;;20.10;89.10;;;;;;5047097;28;20124;-73
2021/06/18 03:28:46;;;;;;;38.88;34.28;;;20.20;88.90;;;;;;5063882;28;20045;-71
2021/06/18 03:31:13;;;;;;;38.22;34.00;;;20.20;88.80;;;;;;5063747;28;20146;-71
2021/06/18 03:33:40;;;;;;;36.78;33.10;;;20.10;88.60;;;;;;5063155;28;20413;-72
2021/06/18 03:36:07;;;;;;;37.80;33.78;;;20.10;88.60;;;;;;5063540;28;20033;-70
2021/06/18 03:38:33;;;;;;;39.70;35.50;;;20.10;88.50;;;;;;5062711;28;20044;-71
2021/06/18 03:40:59;;;;;;;40.10;35.78;;;20.10;88.70;;;;;;5064351;28;20054;-71
2021/06/18 03:43:26;;;;;;;41.17;36.97;;;20.00;88.80;;;;;;5062304;28;20059;-71
2021/06/18 03:45:58;;;;;;;39.10;35.20;;;20.00;89.10;;;;;;5062979;28;20035;-76
2021/06/18 03:48:25;;;;;;;39.28;35.40;;;20.10;89.10;;;;;;5045273;28;20109;-71
2021/06/18 03:50:50;;;;;;;39.72;35.72;;;20.10;89.00;;;;;;5040308;28;20084;-71
2021/06/18 03:53:17;;;;;;;40.50;36.50;;;20.10;88.80;;;;;;5064514;28;20072;-72
2021/06/18 03:55:48;;;;;;;41.38;36.92;;;20.00;88.90;;;;;;5066408;28;20032;-71
2021/06/18 03:58:19;;;;;;;38.83;34.72;;;20.10;89.00;;;;;;5046677;28;20106;-71
2021/06/18 04:00:47;;;;;;;42.90;36.92;;;20.10;89.00;;;;;;5041595;28;20044;-71
2021/06/18 04:03:14;;;;;;;41.63;37.10;;;20.10;89.00;;;;;;5067396;28;20028;-72
2021/06/18 04:05:42;;;;;;;40.53;36.25;;;20.10;88.80;;;;;;5067325;28;20028;-79
2021/06/18 04:08:09;;;;;;;37.75;34.13;;;20.10;88.80;;;;;;5045412;28;20053;-72
2021/06/18 04:10:37;;;;;;;38.60;34.70;;;20.10;88.60;;;;;;5065766;28;20112;-71
2021/06/18 04:13:03;;;;;;;38.63;34.75;;;20.10;88.20;;;;;;5063781;28;20585;-73
2021/06/18 04:15:29;;;;;;;37.85;33.85;;;20.10;88.30;;;;;;5063047;28;20075;-73
2021/06/18 04:17:55;;;;;;;37.50;33.53;;;20.20;88.10;;;;;;5063264;28;20691;-75
2021/06/18 04:20:22;;;;;;;37.22;33.38;;;20.20;88.00;;;;;;5065022;28;20044;-72
2021/06/18 04:22:50;;;;;;;36.53;32.90;;;20.30;88.10;;;;;;5065829;28;20040;-71
2021/06/18 04:25:17;;;;;;;38.20;33.58;;;20.30;87.80;;;;;;5065398;28;21108;-71
2021/06/18 04:27:43;;;;;;;39.00;35.15;;;20.30;87.70;;;;;;5043955;28;20123;-71
2021/06/18 04:30:11;;;;;;;38.40;34.38;;;20.30;87.80;;;;;;5064937;28;20037;-71
2021/06/18 04:32:37;;;;;;;36.88;33.17;;;20.30;87.60;;;;;;5065513;28;20403;-72
2021/06/18 04:35:05;;;;;;;39.17;35.28;;;20.30;87.60;;;;;;5062811;28;20131;-74
2021/06/18 04:37:33;;;;;;;36.88;33.38;;;20.40;87.50;;;;;;5067322;28;20040;-71
2021/06/18 04:39:58;;;;;;;38.17;34.38;;;20.50;87.70;;;;;;5066422;28;20089;-76
2021/06/18 04:42:24;;;;;;;38.10;34.17;;;20.60;87.10;;;;;;5064836;28;20036;-73
2021/06/18 04:44:50;;;;;;;38.30;32.13;;;20.60;87.20;;;;;;5063375;28;20033;-72
2021/06/18 04:47:15;;;;;;;37.70;33.22;;;20.60;86.90;;;;;;5061923;28;20119;-71
2021/06/18 04:49:41;;;;;;;37.80;33.92;;;20.50;86.70;;;;;;5063297;28;20033;-71
2021/06/18 04:52:07;;;;;;;37.60;33.45;;;20.60;87.20;;;;;;5062502;28;20033;-78
2021/06/18 04:54:33;;;;;;;35.15;31.80;;;20.60;87.40;;;;;;5067396;28;20549;-71
2021/06/18 04:56:59;;;;;;;34.72;31.20;;;20.70;86.90;;;;;;5064140;28;20550;-71
2021/06/18 04:59:24;;;;;;;36.25;32.67;;;20.80;86.90;;;;;;5044320;28;20461;-72
2021/06/18 05:01:50;;;;;;;36.10;32.42;;;20.80;86.20;;;;;;5043056;28;20033;-71
2021/06/18 05:04:16;;;;;;;34.83;31.27;;;20.80;86.20;;;;;;5058485;28;20032;-72
2021/06/18 05:06:42;;;;;;;35.42;32.08;;;20.80;86.40;;;;;;5060389;28;20029;-72
2021/06/18 05:09:07;;;;;;;35.10;31.50;;;20.80;86.30;;;;;;5057848;28;20506;-71
2021/06/18 05:11:33;;;;;;;34.15;30.70;;;20.80;86.50;;;;;;5059356;28;20040;-71
2021/06/18 05:13:59;;;;;;;34.58;31.13;;;20.90;86.40;;;;;;5037543;28;20060;-71
2021/06/18 05:16:27;;;;;;;37.40;32.03;;;20.90;86.20;;;;;;5039221;28;20089;-75
2021/06/18 05:18:53;;;;;;;34.30;30.95;;;21.10;86.20;;;;;;5040773;28;20033;-71
2021/06/18 05:21:19;;;;;;;34.63;31.23;;;21.50;85.40;;;;;;5039238;28;20704;-73
2021/06/18 05:23:44;;;;;;;31.27;28.02;;;21.80;83.70;;;;;;5040504;28;20456;-75
2021/06/18 05:26:10;;;;;;;32.53;29.10;;;21.90;83.30;;;;;;5040499;28;20094;-71
2021/06/18 05:28:36;;;;;;;33.53;30.13;;;21.80;82.80;;;;;;5037162;28;20044;-75
2021/06/18 05:31:02;;;;;;;33.05;29.63;;;21.90;82.40;;;;;;5034794;28;20468;-74
2021/06/18 05:33:29;;;;;;;34.33;30.67;;;21.70;83.10;;;;;;5037427;28;20480;-72
2021/06/18 05:35:55;;;;;;;33.70;30.17;;;21.80;83.00;;;;;;5042349;28;20040;-68
2021/06/18 05:38:21;;;;;;;34.60;31.20;;;22.00;83.20;;;;;;5041582;28;20053;-68
2021/06/18 05:40:47;;;;;;;34.72;31.00;;;22.10;82.10;;;;;;5040904;28;20040;-70
2021/06/18 05:43:12;;;;;;;33.97;30.33;;;22.20;82.40;;;;;;5037223;28;20055;-71
2021/06/18 05:45:39;;;;;;;34.45;31.10;;;22.10;82.00;;;;;;5037989;28;20045;-71
2021/06/18 05:48:05;;;;;;;33.15;29.70;;;22.10;82.70;;;;;;5040316;28;20044;-72
2021/06/18 05:50:32;;;;;;;32.47;29.17;;;22.40;81.80;;;;;;5038165;28;20441;-70
2021/06/18 05:52:58;;;;;;;32.47;29.25;;;22.90;80.80;;;;;;5038909;28;20037;-74
2021/06/18 05:55:24;;;;;;;33.90;30.40;;;23.00;79.50;;;;;;5039666;28;20094;-73
2021/06/18 05:57:51;;;;;;;32.90;29.60;;;22.80;79.60;;;;;;5041467;28;20037;-70
2021/06/18 06:00:17;;;;;;;32.85;29.65;;;22.60;80.70;;;;;;5040429;28;20041;-69
2021/06/18 06:02:42;;;;;;;34.88;31.38;;;22.70;80.70;;;;;;5037720;28;20037;-75
2021/06/18 06:05:09;;;;;;;33.70;30.25;;;22.70;80.10;;;;;;5039927;28;20361;-73
2021/06/18 06:07:35;;;;;;;32.33;28.98;;;22.80;80.50;;;;;;5034362;28;20045;-69
2021/06/18 06:10:01;;;;;;;31.05;27.88;;;23.00;81.40;;;;;;5038971;28;20521;-71
2021/06/18 06:12:26;;;;;;;31.05;28.00;;;23.30;79.30;;;;;;5036899;28;20040;-70
2021/06/18 06:14:52;;;;;;;30.90;27.65;;;23.30;78.80;;;;;;5051384;28;20033;-72
2021/06/18 06:17:17;;;;;;;30.77;27.83;;;23.10;79.20;;;;;;5057821;28;20051;-73
2021/06/18 06:19:43;;;;;;;31.45;28.27;;;23.00;79.70;;;;;;5058042;28;20029;-72
2021/06/18 06:22:09;;;;;;;30.13;27.00;;;23.00;80.00;;;;;;5056339;28;20115;-73
2021/06/18 06:24:36;;;;;;;29.58;26.77;;;23.20;80.30;;;;;;5059159;28;20471;-74
2021/06/18 06:27:02;;;;;;;29.88;26.92;;;23.40;78.40;;;;;;5056142;28;20476;-75
2021/06/18 06:29:28;;;;;;;30.83;27.92;;;23.40;78.80;;;;;;5059946;28;20090;-77
2021/06/18 06:31:53;;;;;;;30.65;27.60;;;23.10;79.10;;;;;;5058535;28;20044;-78
2021/06/18 06:34:19;;;;;;;29.08;26.23;;;23.10;79.20;;;;;;5039590;28;20514;-75
2021/06/18 06:36:45;;;;;;;30.83;27.80;;;23.10;79.20;;;;;;5057564;28;20498;-77
2021/06/18 06:39:11;;;;;;;29.05;26.30;;;23.40;79.20;;;;;;5057456;28;20049;-75
2021/06/18 06:41:36;;;;;;;28.00;25.08;;;23.60;78.00;;;;;;5060022;28;20032;-74
2021/06/18 06:44:03;;;;;;;28.77;25.90;;;23.70;77.50;;;;;;5057025;28;20029;-73
2021/06/18 06:46:28;;;;;;;26.15;23.75;;;23.50;77.50;;;;;;5038760;28;20151;-78
2021/06/18 06:48:54;;;;;;;28.75;26.05;;;23.60;78.40;;;;;;5057323;28;20059;-76
2021/06/18 06:51:20;;;;;;;28.15;25.35;;;23.80;78.60;;;;;;5057726;28;20086;-75
2021/06/18 06:53:46;;;;;;;28.20;25.50;;;23.90;77.80;;;;;;5057968;28;20029;-83
2021/06/18 06:56:11;;;;;;;27.60;25.00;;;23.80;77.70;;;;;;5057439;28;20045;-74
2021/06/18 06:58:37;;;;;;;28.27;25.48;;;23.80;77.40;;;;;;5061416;28;20048;-85
2021/06/18 07:01:03;;;;;;;29.48;26.60;;;23.80;77.80;;;;;;5060071;28;20111;-82
2021/06/18 07:03:29;;;;;;;28.92;26.17;;;24.00;78.00;;;;;;5061302;28;20032;-74
2021/06/18 07:05:55;;;;;;;28.15;25.45;;;24.20;76.70;;;;;;5060841;28;20086;-75
2021/06/18 07:08:23;;;;;;;28.13;25.35;;;24.40;75.70;;;;;;5059669;28;20450;-73
2021/06/18 07:10:49;;;;;;;28.17;25.30;;;24.30;75.90;;;;;;5059767;28;20082;-80
2021/06/18 07:13:15;;;;;;;26.08;23.55;;;24.60;74.60;;;;;;5058433;28;20387;-74
2021/06/18 07:15:42;;;;;;;23.88;21.67;;;24.80;74.20;;;;;;5060342;28;20043;-78
2021/06/18 07:18:09;;;;;;;24.38;21.88;;;25.00;74.00;;;;;;5039820;28;20399;-73
2021/06/18 07:20:35;;;;;;;24.35;22.13;;;25.20;73.40;;;;;;5061701;28;20060;-75
2021/06/18 07:23:01;;;;;;;25.05;22.58;;;25.20;73.30;;;;;;5059338;28;20472;-73
2021/06/18 07:25:26;;;;;;;22.92;20.83;;;25.10;72.90;;;;;;5058985;28;20036;-73
2021/06/18 07:27:52;;;;;;;21.65;19.65;;;25.10;73.30;;;;;;5057997;28;20048;-73
2021/06/18 07:30:18;;;;;;;23.20;20.92;;;25.40;72.90;;;;;;5060547;28;20028;-72
2021/06/18 07:32:44;;;;;;;23.63;21.33;;;25.60;72.40;;;;;;5063146;28;20031;-70
2021/06/18 07:35:10;;;;;;;22.45;20.33;;;25.80;72.30;;;;;;5062546;28;20036;-70
2021/06/18 07:37:36;;;;;;;22.92;20.88;;;25.50;72.80;;;;;;5059620;28;20071;-72
2021/06/18 07:40:03;;;;;;;23.27;20.85;;;25.60;72.30;;;;;;5069438;28;20064;-71
2021/06/18 07:42:28;;;;;;;22.48;20.38;;;25.80;72.50;;;;;;5068281;28;20028;-70
2021/06/18 07:44:55;;;;;;;20.42;18.52;;;26.10;70.90;;;;;;5061247;28;20036;-70
2021/06/18 07:47:20;;;;;;;20.15;18.17;;;26.40;70.30;;;;;;5043270;28;20382;-69
2021/06/18 07:49:46;;;;;;;19.40;17.60;;;26.60;69.60;;;;;;5063263;28;20459;-70
2021/06/18 07:52:11;;;;;;;20.77;17.00;;;26.80;69.00;;;;;;5059557;28;20040;-74
2021/06/18 07:54:37;;;;;;;19.88;17.77;;;26.90;69.50;;;;;;5061531;28;20102;-73
2021/06/18 07:57:03;;;;;;;17.88;16.17;;;27.00;69.90;;;;;;5042992;28;20082;-68
2021/06/18 07:59:28;;;;;;;16.75;15.15;;;26.80;68.40;;;;;;5061703;28;20108;-70
2021/06/18 08:01:54;;;;;;;17.38;15.68;;;26.90;69.40;;;;;;5060526;28;20262;-70
2021/06/18 08:04:20;;;;;;;15.85;14.23;;;27.00;67.50;;;;;;5060540;28;20130;-70
2021/06/18 08:06:45;;;;;;;17.75;15.85;;;27.00;67.50;;;;;;5060797;28;20043;-78
2021/06/18 08:09:11;;;;;;;16.70;14.95;;;27.10;67.10;;;;;;5057007;28;20049;-71
2021/06/18 08:11:37;;;;;;;16.15;14.45;;;27.20;68.50;;;;;;5042965;28;20489;-71
2021/06/18 08:14:03;;;;;;;17.42;15.73;;;27.40;67.20;;;;;;5059582;28;20060;-70
2021/06/18 08:16:29;;;;;;;17.98;15.75;;;27.60;67.10;;;;;;5042766;28;20033;-72
2021/06/18 08:18:55;;;;;;;16.63;14.98;;;27.60;66.80;;;;;;5061535;28;20390;-71
2021/06/18 08:21:21;;;;;;;17.60;15.48;;;27.40;67.30;;;;;;5062383;28;20048;-70
2021/06/18 08:23:46;;;;;;;17.42;15.27;;;27.10;67.90;;;;;;5042435;28;20436;-73
2021/06/18 08:26:12;;;;;;;18.10;16.33;;;27.00;68.60;;;;;;5058738;28;20404;-71
2021/06/18 08:28:38;;;;;;;16.55;14.95;;;27.30;67.30;;;;;;5060854;28;20052;-72
2021/06/18 08:31:04;;;;;;;20.52;17.13;;;27.40;67.80;;;;;;5061383;28;20029;-70
2021/06/18 08:33:33;;;;;;;16.73;14.93;;;27.60;67.90;;;;;;5060468;28;20371;-71
2021/06/18 08:35:59;;;;;;;16.38;14.68;;;27.90;66.90;;;;;;5057637;28;20409;-72
2021/06/18 08:38:25;;;;;;;15.63;14.02;;;28.20;66.70;;;;;;5059828;28;20366;-72
2021/06/18 08:40:51;;;;;;;16.05;14.32;;;28.40;66.00;;;;;;5060425;28;20021;-73
2021/06/18 08:43:17;;;;;;;14.75;13.23;;;28.30;66.20;;;;;;5061241;28;20025;-75
2021/06/18 08:45:42;;;;;;;18.48;12.80;;;28.30;65.70;;;;;;5042083;28;20033;-77
2021/06/18 08:48:08;;;;;;;14.50;12.05;;;28.50;65.20;;;;;;5042784;28;20078;-72
2021/06/18 08:50:34;;;;;;;15.82;12.52;;;28.40;64.60;;;;;;5042121;28;20037;-74
2021/06/18 08:53:02;;;;;;;15.65;12.30;;;28.40;63.80;;;;;;5062540;28;20021;-73
2021/06/18 08:55:31;;;;;;;15.15;12.57;;;28.20;64.90;;;;;;5060713;28;20028;-72
2021/06/18 08:57:59;;;;;;;14.93;11.75;;;28.30;64.50;;;;;;5061458;28;20450;-73
2021/06/18 09:00:26;;;;;;;13.88;11.30;;;28.10;64.80;;;;;;5043901;28;20040;-72
2021/06/18 09:02:54;;;;;;;13.65;11.93;;;28.30;64.90;;;;;;5041892;28;21713;-77
2021/06/18 09:05:21;;;;;;;13.18;11.32;;;28.50;64.80;;;;;;5041015;28;20037;-73
2021/06/18 09:07:46;;;;;;;13.13;11.75;;;28.30;64.10;;;;;;5057032;28;20036;-74
2021/06/18 09:10:28;;;;;;;12.57;9.85;;;28.40;64.60;;;;;;5060202;28;20041;-76
2021/06/18 09:13:17;;;;;;;14.68;9.07;;;28.50;63.10;;;;;;5042793;28;20043;-79
2021/06/18 09:15:51;;;;;;;12.13;8.95;;;28.70;62.50;;;;;;5060948;28;20056;-75
2021/06/18 09:18:23;;;;;;;12.93;10.23;;;28.80;62.70;;;;;;5058020;28;20032;-75
2021/06/18 09:21:20;;;;;;;10.52;9.25;;;29.00;61.80;;;;;;5043259;28;20039;-75
2021/06/18 09:23:51;;;;;;;15.35;10.02;;;28.90;60.40;;;;;;5053825;28;20036;-74
2021/06/18 09:26:30;;;;;;;13.77;10.60;;;29.10;61.30;;;;;;5060070;28;20021;-74
2021/06/18 09:29:17;;;;;;;14.43;10.32;;;29.00;61.80;;;;;;5061813;28;20135;-78
2021/06/18 09:31:58;;;;;;;12.30;10.13;;;29.00;61.20;;;;;;5061641;28;20044;-73
2021/06/18 09:37:38;;;;;;;13.18;9.45;;;29.50;61.20;;;;;;5044148;28;20033;-73
2021/06/18 09:40:19;;;;;;;14.18;10.57;;;29.90;58.60;;;;;;5059955;28;20035;-74
2021/06/18 09:42:45;;;;;;;10.80;8.27;;;30.00;57.60;;;;;;5060247;28;20040;-72
2021/06/18 09:45:19;;;;;;;13.32;9.13;;;30.00;59.20;;;;;;5039937;28;20040;-78
2021/06/18 09:47:45;;;;;;;13.52;9.30;;;30.00;58.10;;;;;;5059223;28;20048;-74
2021/06/18 09:50:13;;;;;;;14.68;10.35;;;30.20;58.10;;;;;;5040491;28;20106;-72
2021/06/18 09:52:43;;;;;;;14.40;11.15;;;30.50;57.50;;;;;;5057164;28;20041;-72
2021/06/18 09:55:23;;;;;;;13.57;9.32;;;30.20;57.60;;;;;;5057349;28;20470;-72
2021/06/18 09:57:54;;;;;;;11.75;9.95;;;30.10;57.50;;;;;;5058851;28;20432;-74
2021/06/18 10:00:20;;;;;;;12.70;10.32;;;30.20;57.20;;;;;;5058499;28;20048;-72
2021/06/18 10:02:48;;;;;;;12.00;9.75;;;30.00;57.50;;;;;;5053628;28;20040;-72
2021/06/18 10:05:19;;;;;;;14.73;11.13;;;30.00;58.90;;;;;;5039811;28;20093;-73
2021/06/18 10:07:47;;;;;;;14.20;10.32;;;30.00;59.00;;;;;;5057446;28;20667;-74
2021/06/18 10:10:16;;;;;;;12.15;9.88;;;30.10;59.20;;;;;;5040038;28;20028;-72
2021/06/18 10:12:42;;;;;;;10.88;9.77;;;30.20;59.00;;;;;;5058011;28;20533;-74
2021/06/18 10:15:11;;;;;;;12.27;9.25;;;30.30;57.80;;;;;;5057802;28;20052;-72
2021/06/18 10:17:40;;;;;;;14.40;9.90;;;30.60;56.70;;;;;;5056323;28;20463;-74
2021/06/18 10:20:09;;;;;;;11.07;8.88;;;30.80;55.80;;;;;;5065381;28;20448;-73
2021/06/18 10:22:45;;;;;;;11.43;8.63;;;31.00;54.90;;;;;;5056068;28;20958;-72
2021/06/18 10:25:14;;;;;;;12.32;9.68;;;30.90;55.60;;;;;;5040253;28;20063;-76
2021/06/18 10:27:48;;;;;;;12.85;9.13;;;30.70;55.60;;;;;;5056355;28;20102;-74
2021/06/18 10:30:30;;;;;;;11.18;9.32;;;30.50;56.50;;;;;;5055519;28;20033;-71
2021/06/18 10:32:58;;;;;;;10.85;9.00;;;30.60;57.40;;;;;;5056416;28;20045;-77
2021/06/18 10:35:39;;;;;;;12.05;7.88;;;30.80;55.70;;;;;;5056630;28;20040;-74
2021/06/18 10:38:12;;;;;;;11.23;8.13;;;30.90;55.60;;;;;;5035799;28;20425;-72
2021/06/18 10:40:45;;;;;;;11.98;9.27;;;31.30;54.20;;;;;;5059121;28;20044;-74
2021/06/18 10:43:15;;;;;;;11.32;8.35;;;31.40;53.40;;;;;;5056882;28;20391;-72
2021/06/18 10:45:59;;;;;;;11.55;8.77;;;31.40;54.50;;;;;;5058078;28;20036;-72
2021/06/18 10:48:46;;;;;;;11.25;7.75;;;31.70;53.20;;;;;;5057717;28;20533;-76
2021/06/18 10:51:27;;;;;;;10.73;7.95;;;31.90;53.20;;;;;;5057037;28;20075;-77
2021/06/18 10:54:02;;;;;;;9.88;7.28;;;31.70;52.90;;;;;;5039063;28;20055;-73
2021/06/18 10:56:46;;;;;;;9.52;7.20;;;31.60;51.20;;;;;;5057684;28;20635;-72
2021/06/18 10:59:33;;;;;;;11.98;7.82;;;31.60;53.50;;;;;;5059285;28;20398;-75
2021/06/18 11:02:01;;;;;;;10.48;8.20;;;31.60;52.50;;;;;;5057496;28;20098;-71
2021/06/18 11:04:42;;;;;;;11.40;8.07;;;31.30;54.20;;;;;;5053197;28;20132;-75
2021/06/18 11:07:21;;;;;;;12.30;7.57;;;31.20;54.70;;;;;;5055582;28;20036;-73
2021/06/18 11:09:48;;;;;;;12.02;9.18;;;31.50;54.10;;;;;;5055226;28;20037;-72
2021/06/18 11:12:23;;;;;;;13.98;10.07;;;31.80;54.50;;;;;;5056522;28;20048;-73
2021/06/18 11:14:50;;;;;;;13.23;7.50;;;31.60;54.20;;;;;;5057196;28;20487;-73
2021/06/18 11:17:38;;;;;;;10.80;7.03;;;31.90;52.60;;;;;;5036596;28;20094;-72
2021/06/18 11:20:08;;;;;;;13.10;7.40;;;31.30;54.70;;;;;;5056186;28;20037;-76
2021/06/18 11:22:47;;;;;;;18.65;8.15;;;31.40;52.90;;;;;;5039854;28;20067;-72
2021/06/18 11:25:32;;;;;;;12.27;6.55;;;31.90;52.70;;;;;;5055756;28;20089;-73
2021/06/18 11:28:23;;;;;;;9.90;6.10;;;32.20;49.30;;;;;;5058519;28;20352;-73
2021/06/18 11:30:58;;;;;;;25.45;8.30;;;32.30;48.20;;;;;;5056000;28;20482;-72
2021/06/18 11:33:36;;;;;;;11.10;6.13;;;32.30;46.90;;;;;;5057181;28;20032;-76
2021/06/18 11:36:32;;;;;;;10.73;6.18;;;32.30;46.70;;;;;;5056179;28;20480;-73
2021/06/18 11:39:19;;;;;;;7.80;5.97;;;32.00;47.20;;;;;;5040037;28;20047;-72
2021/06/18 11:41:48;;;;;;;10.43;6.50;;;32.10;48.20;;;;;;5053885;28;20036;-76
2021/06/18 11:44:19;;;;;;;9.75;6.07;;;32.70;48.60;;;;;;5057521;28;20058;-74
2021/06/18 11:46:45;;;;;;;10.63;5.95;;;33.00;46.20;;;;;;5057232;28;20044;-73
2021/06/18 11:49:14;;;;;;;10.43;6.50;;;33.20;45.50;;;;;;5059834;28;20049;-79
2021/06/18 11:51:40;;;;;;;11.27;6.40;;;32.60;46.40;;;;;;5054328;28;20032;-76
2021/06/18 11:54:06;;;;;;;9.23;7.00;;;32.20;46.90;;;;;;5057432;28;20036;-74
2021/06/18 11:56:34;;;;;;;10.25;6.43;;;31.60;47.20;;;;;;5058567;28;20083;-74
2021/06/18 11:59:00;;;;;;;9.23;6.05;;;31.90;48.10;;;;;;5065023;28;20112;-72
2021/06/18 12:01:31;;;;;;;9.85;5.95;;;31.60;46.60;;;;;;5062765;28;20135;-72
2021/06/18 12:04:01;;;;;;;10.15;6.47;;;31.40;48.40;;;;;;5060713;28;20063;-72
2021/06/18 12:06:30;;;;;;;13.27;6.80;;;31.20;47.90;;;;;;5053557;28;20467;-75
2021/06/18 12:08:57;;;;;;;16.60;6.50;;;31.20;48.50;;;;;;5055333;28;20036;-73
2021/06/18 12:11:22;;;;;;;12.25;6.88;;;31.50;48.50;;;;;;5058541;28;20056;-71
2021/06/18 12:13:52;;;;;;;10.77;6.15;;;31.30;48.70;;;;;;5055718;28;20049;-71
2021/06/18 12:16:19;;;;;;;9.68;6.30;;;31.30;49.00;;;;;;5056083;28;20087;-72
2021/06/18 12:18:45;;;;;;;13.95;6.85;;;31.10;48.60;;;;;;5061879;28;20040;-74
2021/06/18 12:21:12;;;;;;;9.70;6.03;;;31.10;49.00;;;;;;5061672;28;20051;-72
2021/06/18 12:23:39;;;;;;;9.23;6.63;;;31.10;49.30;;;;;;5061285;28;20045;-72
2021/06/18 12:26:08;;;;;;;11.32;6.70;;;31.30;49.90;;;;;;5058915;28;20043;-73
2021/06/18 12:28:37;;;;;;;9.63;6.40;;;31.40;49.30;;;;;;5060640;28;20060;-80
2021/06/18 12:31:03;;;;;;;8.55;6.03;;;31.30;49.30;;;;;;5046256;28;20036;-74
2021/06/18 12:33:28;;;;;;;9.95;6.40;;;31.00;50.00;;;;;;5060949;28;20063;-80
2021/06/18 12:35:58;;;;;;;15.27;6.65;;;30.70;50.90;;;;;;5061565;28;20147;-73
2021/06/18 12:38:24;;;;;;;13.80;7.40;;;30.30;51.60;;;;;;5058873;28;20037;-72
2021/06/18 12:40:49;;;;;;;15.88;8.60;;;29.80;53.60;;;;;;5060838;28;20036;-72
2021/06/18 12:43:16;;;;;;;13.95;9.70;;;28.40;63.20;;;;;;5042151;28;20131;-73